Time;durP1;ratioP1;P1;durP2;ratioP2;P2;SDS_P1;SDS_P2;PMS_P1;PMS_P2;Temp;Humidity;BMP_temperature;BMP_pressure;BME280_temperature;BME280_humidity;BME280_pressure;Samples;Min_cycle;Max_cycle;Signal;HPM_P1;HPM_P2
2022/12/25 00:00:53;;;;;;;7.95;4.70;;;;;;;6.28;100.00;101131.53;6142176;23;20017;-75
2022/12/25 00:03:20;;;;;;;5.15;4.75;;;;;;;5.26;100.00;100960.63;6169906;23;20085;-73
2022/12/25 00:05:46;;;;;;;5.88;5.15;;;;;;;5.88;100.00;101043.16;6141288;23;20031;-73
2022/12/25 00:08:13;;;;;;;13.07;4.95;;;;;;;6.25;100.00;101100.34;6144064;23;20046;-72
2022/12/25 00:10:39;;;;;;;5.43;5.07;;;;;;;5.89;100.00;101030.06;6115449;23;20023;-72
2022/12/25 00:13:10;;;;;;;5.03;4.72;;;;;;;6.36;100.00;101087.88;6173133;23;20104;-73
2022/12/25 00:15:40;;;;;;;4.60;4.30;;;;;;;6.24;100.00;101064.75;6136814;23;20009;-72
2022/12/25 00:18:06;;;;;;;4.35;4.15;;;;;;;6.37;100.00;101088.72;6168485;23;20520;-72
2022/12/25 00:20:33;;;;;;;5.13;4.72;;;;;;;6.57;100.00;101122.03;6131697;23;20234;-73
2022/12/25 00:22:59;;;;;;;6.40;4.70;;;;;;;6.55;100.00;101114.25;6155382;23;20016;-72
2022/12/25 00:25:26;;;;;;;5.65;4.75;;;;;;;6.08;100.00;101037.44;6142388;23;20092;-73
2022/12/25 00:27:52;;;;;;;17.23;4.55;;;;;;;6.28;100.00;101082.03;6138938;23;20192;-72
2022/12/25 00:30:18;;;;;;;4.88;4.65;;;;;;;6.64;100.00;101126.19;6169616;23;20025;-73
2022/12/25 00:32:45;;;;;;;6.25;5.65;;;;;;;6.73;100.00;101117.22;6144474;23;20025;-72
2022/12/25 00:35:11;;;;;;;5.95;4.45;;;;;;;6.75;100.00;101124.09;6138716;23;20025;-73
2022/12/25 00:37:38;;;;;;;8.98;5.03;;;;;;;6.48;100.00;101073.63;6141139;23;20181;-72
2022/12/25 00:40:05;;;;;;;5.47;4.38;;;;;;;6.81;100.00;101117.00;6149099;23;20020;-72
2022/12/25 00:42:32;;;;;;;4.80;4.40;;;;;;;6.40;100.00;101049.53;6137595;23;20381;-72
2022/12/25 00:45:00;;;;;;;6.38;5.72;;;;;;;6.33;100.00;101033.19;6140826;23;20052;-72
2022/12/25 00:47:29;;;;;;;5.28;4.78;;;;;;;6.56;100.00;101065.59;6161574;23;20588;-73
2022/12/25 00:49:55;;;;;;;9.30;5.00;;;;;;;6.99;100.00;101122.50;6138475;23;20055;-72
2022/12/25 00:52:22;;;;;;;6.07;4.53;;;;;;;6.76;100.00;101086.69;6168676;23;20016;-73
2022/12/25 00:54:48;;;;;;;4.60;4.30;;;;;;;6.94;100.00;101103.56;6138923;23;20037;-72
2022/12/25 00:57:14;;;;;;;10.73;5.13;;;;;;;7.09;100.00;101136.13;6168248;23;20240;-72
2022/12/25 00:59:41;;;;;;;7.07;5.70;;;;;;;6.93;100.00;101108.81;6144771;23;20215;-73
2022/12/25 01:02:22;;;;;;;4.90;4.50;;;;;;;7.06;100.00;101135.41;6135664;23;20020;-74
2022/12/25 01:04:52;;;;;;;5.00;4.70;;;;;;;6.91;100.00;101102.78;6170854;23;20013;-73
2022/12/25 01:07:20;;;;;;;5.13;4.75;;;;;;;6.42;100.00;101020.81;6132219;23;20029;-72
2022/12/25 01:12:34;;;;;;;6.75;5.72;;;;;;;6.92;100.00;101101.91;6144963;23;20013;-72
2022/12/25 01:15:01;;;;;;;5.35;4.90;;;;;;;7.09;100.00;101124.84;6141349;23;21009;-73
2022/12/25 01:17:28;;;;;;;5.15;4.78;;;;;;;7.00;100.00;101110.34;6181538;23;20122;-73
2022/12/25 01:19:54;;;;;;;5.28;4.88;;;;;;;6.57;100.00;101041.19;6143201;23;20017;-73
2022/12/25 01:22:21;;;;;;;4.63;4.32;;;;;;;7.14;100.00;101154.28;6105082;23;20494;-74
2022/12/25 01:24:47;;;;;;;8.73;5.82;;;;;;;6.55;100.00;101032.56;6131473;23;20249;-73
2022/12/25 01:27:14;;;;;;;5.80;5.10;;;;;;;7.01;100.00;101096.38;6153608;23;20021;-73
2022/12/25 01:29:40;;;;;;;4.38;4.18;;;;;;;7.19;100.00;101126.28;6136693;23;20285;-73
2022/12/25 01:32:07;;;;;;;5.32;4.93;;;;;;;7.24;100.00;101127.00;6138162;23;20078;-72
2022/12/25 01:34:33;;;;;;;6.57;4.80;;;;;;;7.26;100.00;101134.78;6140165;23;20431;-72
2022/12/25 01:37:00;;;;;;;13.00;5.13;;;;;;;7.02;100.00;101092.88;6139292;23;20029;-72
2022/12/25 01:39:27;;;;;;;5.88;5.38;;;;;;;7.08;100.00;101108.34;6142997;23;20016;-72
2022/12/25 01:41:54;;;;;;;14.45;5.10;;;;;;;7.24;100.00;101124.38;6128775;23;20071;-73
2022/12/25 01:44:35;;;;;;;5.00;4.70;;;;;;;7.26;100.00;101114.75;6167724;23;20040;-73
2022/12/25 01:47:05;;;;;;;5.13;4.78;;;;;;;6.95;100.00;101065.25;6133926;23;20066;-72
2022/12/25 01:49:36;;;;;;;5.80;5.30;;;;;;;7.28;100.00;101109.50;6120334;23;20017;-73
2022/12/25 01:52:11;;;;;;;5.32;5.00;;;;;;;7.26;100.00;101103.47;6136751;23;20436;-73
2022/12/25 01:54:42;;;;;;;5.80;5.40;;;;;;;7.30;100.00;101118.97;6144469;23;20100;-73
2022/12/25 01:57:17;;;;;;;9.40;5.13;;;;;;;6.84;100.00;101052.56;6135278;23;20314;-73
2022/12/25 01:59:44;;;;;;;5.22;4.82;;;;;;;6.49;100.00;100993.66;6164248;23;20028;-73
2022/12/25 02:02:11;;;;;;;5.45;5.03;;;;;;;6.82;100.00;101077.00;6134428;23;20514;-72
2022/12/25 02:04:45;;;;;;;5.07;4.78;;;;;;;7.29;100.00;101129.47;6168165;23;20352;-72
2022/12/25 02:07:15;;;;;;;5.28;4.97;;;;;;;7.29;100.00;101137.28;6140163;23;20088;-73
2022/12/25 02:09:42;;;;;;;4.97;4.40;;;;;;;7.30;100.00;101134.63;6145208;23;20044;-74
2022/12/25 02:12:18;;;;;;;5.43;5.13;;;;;;;7.31;100.00;101135.47;6128566;23;20517;-74
2022/12/25 02:14:48;;;;;;;5.18;4.88;;;;;;;6.58;100.00;101009.88;6171201;23;20008;-74
2022/12/25 02:17:26;;;;;;;5.95;5.07;;;;;;;6.92;100.00;101071.44;6131801;23;20138;-73
2022/12/25 02:20:20;;;;;;;5.55;5.15;;;;;;;7.35;100.00;101140.56;6161973;23;20228;-74
2022/12/25 02:22:59;;;;;;;15.00;5.43;;;;;;;7.39;100.00;101139.56;6126312;23;20088;-74
2022/12/25 02:25:35;;;;;;;4.93;4.53;;;;;;;7.09;100.00;101078.72;6133105;23;20521;-74
2022/12/25 02:28:14;;;;;;;5.00;4.70;;;;;;;7.42;100.00;101129.91;6160004;23;20028;-74
2022/12/25 02:30:51;;;;;;;4.60;4.32;;;;;;;7.34;100.00;101124.97;6133025;23;20031;-73
2022/12/25 02:36:19;;;;;;;5.15;4.85;;;;;;;7.17;100.00;101113.25;6166300;23;20272;-74
2022/12/25 02:41:40;;;;;;;5.72;5.22;;;;;;;6.74;100.00;101036.34;6140944;23;20106;-73
2022/12/25 03:06:43;;;;;;;4.97;4.60;;;;;;;6.86;100.00;101063.81;6136005;23;20027;-73
2022/12/25 03:12:19;;;;;;;5.70;5.30;;;;;;;7.40;100.00;101116.94;6134716;23;20019;-74
2022/12/25 03:17:32;;;;;;;4.88;4.57;;;;;;;7.45;100.00;101122.00;6134824;23;20021;-73
2022/12/25 03:28:16;;;;;;;7.55;5.78;;;;;;;7.18;100.00;101060.19;6148428;23;20084;-74
2022/12/25 03:31:11;;;;;;;6.65;5.80;;;;;;;7.53;100.00;101107.75;6143032;23;20114;-74
2022/12/25 03:37:43;;;;;;;6.75;5.57;;;;;;;7.53;100.00;101094.72;6163981;23;20025;-74
2022/12/25 03:41:20;;;;;;;4.82;4.60;;;;;;;7.51;100.00;101086.06;6138032;23;20036;-74
2022/12/25 04:36:40;;;;;;;5.75;4.22;;;;;;;7.44;100.00;101042.81;6141469;23;20041;-72
2022/12/25 04:39:08;;;;;;;4.45;4.25;;;;;;;7.34;100.00;101028.34;6166747;23;20367;-73
2022/12/25 04:41:34;;;;;;;6.47;4.40;;;;;;;6.77;100.00;100939.72;6136190;23;20041;-73
2022/12/25 04:44:01;;;;;;;4.47;4.18;;;;;;;7.52;100.00;101074.72;6162039;23;20110;-73
2022/12/25 04:46:28;;;;;;;5.50;5.20;;;;;;;7.47;100.00;101066.19;6136854;23;20037;-74
2022/12/25 04:48:54;;;;;;;4.78;4.47;;;;;;;7.14;100.00;101010.75;6166799;23;20040;-73
2022/12/25 04:51:23;;;;;;;4.90;4.60;;;;;;;7.41;100.00;101055.94;6138750;23;20078;-73
2022/12/25 04:53:51;;;;;;;6.43;4.63;;;;;;;7.14;100.00;101003.75;6140960;23;20403;-72
2022/12/25 04:56:18;;;;;;;4.50;4.30;;;;;;;7.20;100.00;101018.38;6137544;23;20031;-73
2022/12/25 04:58:46;;;;;;;4.43;4.22;;;;;;;7.38;100.00;101054.31;6121986;23;20492;-73
2022/12/25 05:01:13;;;;;;;4.57;4.32;;;;;;;7.38;100.00;101058.69;6164064;23;20103;-73
2022/12/25 05:03:40;;;;;;;5.53;4.68;;;;;;;7.06;100.00;101018.81;6139677;23;20036;-73
2022/12/25 05:06:07;;;;;;;4.68;4.30;;;;;;;7.42;100.00;101060.28;6120904;23;20541;-73
2022/12/25 05:08:36;;;;;;;4.45;4.15;;;;;;;7.36;100.00;101050.03;6129596;23;20013;-73
2022/12/25 05:11:09;;;;;;;5.43;4.20;;;;;;;7.07;100.00;101001.41;6118379;23;20028;-72
2022/12/25 05:13:36;;;;;;;7.40;5.13;;;;;;;7.31;100.00;101042.34;6136393;23;20366;-73
2022/12/25 05:16:05;;;;;;;4.03;3.83;;;;;;;7.51;100.00;101048.66;6135587;23;20045;-73
2022/12/25 05:18:31;;;;;;;4.13;3.92;;;;;;;7.51;100.00;101053.88;6170218;23;20147;-72
2022/12/25 05:20:58;;;;;;;6.47;4.85;;;;;;;7.48;100.00;101047.03;6111513;23;20451;-73
2022/12/25 05:23:24;;;;;;;4.35;4.15;;;;;;;6.91;100.00;100952.31;6171101;23;20213;-73
2022/12/25 05:25:51;;;;;;;5.95;5.40;;;;;;;7.44;100.00;101037.59;6144641;23;20080;-73
2022/12/25 05:28:17;;;;;;;4.57;4.38;;;;;;;6.91;100.00;100959.28;6184282;23;20052;-73
2022/12/25 05:30:44;;;;;;;4.53;4.32;;;;;;;6.91;100.00;100923.59;6114123;23;20033;-73
2022/12/25 05:33:10;;;;;;;4.60;4.30;;;;;;;7.47;100.00;101018.34;6144806;23;20021;-74
2022/12/25 05:35:38;;;;;;;8.23;4.38;;;;;;;7.24;100.00;100979.97;6166026;23;20254;-72
2022/12/25 05:38:06;;;;;;;4.70;4.40;;;;;;;6.10;100.00;100814.16;6142341;23;20035;-73
2022/12/25 05:40:33;;;;;;;4.57;4.28;;;;;;;5.82;100.00;100788.09;6169263;23;20051;-74
2022/12/25 05:42:59;;;;;;;8.85;4.57;;;;;;;6.98;100.00;100994.72;6128970;23;20013;-73
2022/12/25 05:45:26;;;;;;;4.63;4.32;;;;;;;6.99;100.00;101014.69;6163719;23;20024;-72
2022/12/25 05:47:52;;;;;;;4.40;4.00;;;;;;;6.58;100.00;100962.09;6119592;23;20025;-73
2022/12/25 05:50:19;;;;;;;4.38;4.18;;;;;;;6.95;100.00;101031.34;6169757;23;20036;-74
2022/12/25 05:52:45;;;;;;;4.68;4.38;;;;;;;7.01;100.00;101025.09;6129889;23;20116;-72
2022/12/25 05:55:11;;;;;;;4.40;4.10;;;;;;;7.08;100.00;101021.38;6145255;23;20028;-72
2022/12/25 05:57:38;;;;;;;4.50;4.20;;;;;;;6.84;100.00;100979.53;6143269;23;20033;-74
2022/12/25 06:00:05;;;;;;;4.28;4.07;;;;;;;7.16;100.00;101014.16;6166478;23;20021;-73
2022/12/25 06:02:34;;;;;;;4.20;4.00;;;;;;;7.27;100.00;101014.63;6143156;23;20139;-73
2022/12/25 06:05:02;;;;;;;4.07;3.88;;;;;;;7.23;100.00;100962.59;6145515;23;20008;-74
2022/12/25 06:07:29;;;;;;;4.45;4.25;;;;;;;7.50;100.00;100998.19;6132770;23;20021;-73
2022/12/25 06:09:55;;;;;;;4.05;3.85;;;;;;;7.37;100.00;100961.19;6119546;23;20005;-73
2022/12/25 06:12:22;;;;;;;4.53;4.22;;;;;;;7.54;100.00;100989.34;6154431;23;20013;-73
2022/12/25 06:14:48;;;;;;;4.85;4.47;;;;;;;7.37;100.00;100969.03;6138897;23;20036;-73
2022/12/25 06:17:17;;;;;;;5.28;4.78;;;;;;;7.32;100.00;100960.53;6173158;23;20316;-73
2022/12/25 06:19:44;;;;;;;4.40;4.18;;;;;;;7.25;100.00;100937.28;6134028;23;20037;-74
2022/12/25 06:22:10;;;;;;;10.45;4.30;;;;;;;7.30;100.00;100945.81;6129372;23;20393;-73
2022/12/25 06:24:37;;;;;;;5.65;4.70;;;;;;;7.13;100.00;100922.91;6166424;23;20085;-73
2022/12/25 06:27:03;;;;;;;4.40;4.20;;;;;;;7.24;100.00;100932.97;6131445;23;20025;-73
2022/12/25 06:29:30;;;;;;;6.63;5.95;;;;;;;7.17;100.00;100935.78;6169805;23;20475;-73
2022/12/25 06:31:57;;;;;;;8.15;4.60;;;;;;;7.49;100.00;100966.91;6129235;23;20429;-73
2022/12/25 06:34:24;;;;;;;5.15;4.75;;;;;;;7.47;100.00;100953.06;6135288;23;20099;-73
2022/12/25 06:36:50;;;;;;;4.80;4.53;;;;;;;7.23;100.00;100923.44;6164298;23;20507;-72
2022/12/25 06:39:17;;;;;;;4.85;4.55;;;;;;;7.47;100.00;100956.50;6136038;23;20084;-73
2022/12/25 06:41:43;;;;;;;5.57;4.10;;;;;;;7.48;100.00;100945.16;6170441;23;20463;-74
2022/12/25 06:44:10;;;;;;;10.43;5.10;;;;;;;7.29;100.00;100904.94;6136804;23;20072;-73
2022/12/25 06:46:36;;;;;;;5.00;4.78;;;;;;;7.22;100.00;100883.44;6147849;23;20087;-73
2022/12/25 06:49:03;;;;;;;4.45;4.25;;;;;;;7.24;100.00;100883.38;6133449;23;20041;-74
2022/12/25 06:51:30;;;;;;;4.93;4.63;;;;;;;7.56;100.00;100935.31;6163452;23;20028;-74
2022/12/25 06:53:58;;;;;;;4.32;4.10;;;;;;;7.56;100.00;100943.13;6123087;23;20018;-73
2022/12/25 06:56:26;;;;;;;4.57;4.15;;;;;;;7.66;100.00;100933.22;6140465;23;20046;-74
2022/12/25 06:58:56;;;;;;;4.40;4.20;;;;;;;7.66;100.00;100938.44;6167029;23;20076;-74
2022/12/25 07:01:24;;;;;;;4.22;4.03;;;;;;;7.71;100.00;100933.88;6143135;23;20017;-73
2022/12/25 07:03:53;;;;;;;5.05;4.75;;;;;;;7.21;100.00;100839.09;6170819;23;20040;-73
2022/12/25 07:06:20;;;;;;;5.75;5.22;;;;;;;7.16;100.00;100813.19;6146591;23;20035;-73
2022/12/25 07:08:47;;;;;;;4.95;4.65;;;;;;;7.48;100.00;100861.59;6174525;23;20576;-74
2022/12/25 07:11:13;;;;;;;6.60;4.95;;;;;;;7.76;100.00;100884.09;6122540;23;20031;-74
2022/12/25 07:13:40;;;;;;;4.55;4.15;;;;;;;7.74;100.00;100889.38;6117680;23;20062;-73
2022/12/25 07:16:07;;;;;;;4.00;3.80;;;;;;;7.47;100.00;100822.50;6146964;23;20085;-73
2022/12/25 07:18:33;;;;;;;5.03;4.55;;;;;;;7.31;100.00;100781.28;6144145;23;20025;-74
2022/12/25 07:21:12;;;;;;;5.65;4.75;;;;;;;7.98;100.00;100895.44;6176107;23;20028;-73
2022/12/25 07:23:39;;;;;;;4.35;4.15;;;;;;;7.85;100.00;100869.81;6115289;23;20065;-73
2022/12/25 07:26:05;;;;;;;4.45;4.25;;;;;;;7.61;100.00;100835.88;6149226;23;20033;-73
2022/12/25 07:28:32;;;;;;;4.28;4.07;;;;;;;7.72;100.00;100857.22;6171461;23;20510;-73
2022/12/25 07:31:04;;;;;;;4.15;3.88;;;;;;;8.03;100.00;100894.41;6141451;23;20023;-72
2022/12/25 07:33:32;;;;;;;4.47;4.22;;;;;;;8.05;100.00;100892.59;6173148;23;20073;-72
2022/12/25 07:35:58;;;;;;;5.03;4.28;;;;;;;7.77;100.00;100847.44;6115325;23;20381;-72
2022/12/25 07:38:25;;;;;;;5.93;4.85;;;;;;;7.79;100.00;100873.50;6174170;23;20164;-73
2022/12/25 07:40:52;;;;;;;4.85;4.55;;;;;;;8.12;100.00;100886.22;6143992;23;20063;-74
2022/12/25 07:43:19;;;;;;;4.97;4.53;;;;;;;8.18;100.00;100875.53;6175378;23;20075;-72
2022/12/25 07:45:45;;;;;;;4.20;4.00;;;;;;;7.71;100.00;100802.44;6148435;23;20029;-72
2022/12/25 07:48:11;;;;;;;4.40;4.10;;;;;;;8.05;100.00;100850.75;6148275;23;20085;-72
2022/12/25 07:50:42;;;;;;;6.55;4.40;;;;;;;8.16;100.00;100877.34;6143361;23;20259;-74
2022/12/25 07:53:08;;;;;;;5.22;5.03;;;;;;;7.82;100.00;100822.91;6146618;23;20051;-79
2022/12/25 07:55:35;;;;;;;4.20;3.90;;;;;;;6.25;100.00;100568.69;6179591;23;20561;-77
2022/12/25 07:58:01;;;;;;;4.40;4.13;;;;;;;6.37;100.00;100583.91;6150130;23;20017;-80
2022/12/25 08:00:32;;;;;;;4.43;3.90;;;;;;;7.41;100.00;100802.69;6148802;23;20027;-80
2022/12/25 08:02:59;;;;;;;4.30;4.00;;;;;;;7.85;100.00;100833.25;6152760;23;20523;-81
2022/12/25 08:05:25;;;;;;;4.70;4.30;;;;;;;7.77;100.00;100810.88;6163785;23;20036;-82
2022/12/25 08:07:53;;;;;;;4.28;4.07;;;;;;;8.18;100.00;100859.84;6147135;23;20020;-78
2022/12/25 08:10:23;;;;;;;4.43;4.22;;;;;;;7.65;100.00;100777.38;6175812;23;20038;-79
2022/12/25 08:12:50;;;;;;;4.82;4.25;;;;;;;6.69;100.00;100654.00;6153079;23;20043;-80
2022/12/25 08:15:17;;;;;;;4.80;4.50;;;;;;;6.78;100.00;100625.81;6136914;23;20028;-79
2022/12/25 08:17:43;;;;;;;4.85;4.45;;;;;;;8.23;100.00;100873.56;6174289;23;20025;-77
2022/12/25 08:20:11;;;;;;;5.55;4.80;;;;;;;7.95;100.00;100831.97;6150119;23;20092;-83
2022/12/25 08:22:41;;;;;;;4.65;4.38;;;;;;;5.86;100.00;100482.38;6176247;23;20032;-82
2022/12/25 08:25:08;;;;;;;4.80;4.50;;;;;;;7.32;100.00;100711.66;6151168;23;20065;-82
2022/12/25 08:27:34;;;;;;;5.97;5.03;;;;;;;5.32;100.00;100341.16;6179900;23;20193;-82
2022/12/25 08:30:01;;;;;;;4.55;4.35;;;;;;;5.50;100.00;100345.69;6146749;23;20317;-80
2022/12/25 08:32:30;;;;;;;4.72;4.53;;;;;;;7.94;100.00;100765.81;6185411;23;20036;-80
2022/12/25 08:34:56;;;;;;;5.97;4.68;;;;;;;8.52;100.00;100825.34;6152843;23;20013;-81
2022/12/25 08:37:23;;;;;;;4.22;4.03;;;;;;;8.30;100.00;100804.44;6126504;23;20025;-80
2022/12/25 08:39:49;;;;;;;5.00;4.60;;;;;;;8.58;100.00;100895.72;6175074;23;20471;-79
2022/12/25 08:42:16;;;;;;;5.20;4.90;;;;;;;7.94;100.00;100791.09;6158388;23;20028;-80
2022/12/25 08:44:42;;;;;;;5.13;4.47;;;;;;;8.09;100.00;100828.81;6177637;23;20024;-81
2022/12/25 08:47:11;;;;;;;22.92;5.75;;;;;;;8.55;100.00;100916.75;6126403;23;20397;-80
2022/12/25 08:49:37;;;;;;;5.95;4.93;;;;;;;7.55;100.00;100795.16;6185478;23;20083;-81
2022/12/25 08:52:04;;;;;;;5.55;4.85;;;;;;;7.13;100.00;100690.63;6141899;23;20013;-79
2022/12/25 08:54:32;;;;;;;5.55;5.10;;;;;;;8.21;100.00;100853.63;6186769;23;20581;-78
2022/12/25 08:56:59;;;;;;;5.47;4.95;;;;;;;5.55;100.00;100441.81;6124449;23;20301;-79
2022/12/25 08:59:28;;;;;;;5.75;5.18;;;;;;;7.43;100.00;100704.25;6133533;23;20040;-79
2022/12/25 09:01:57;;;;;;;5.57;5.07;;;;;;;7.53;100.00;100683.84;6154521;23;20021;-80
2022/12/25 09:04:23;;;;;;;7.07;6.40;;;;;;;6.16;100.00;100439.59;6152375;23;20030;-78
2022/12/25 09:06:50;;;;;;;7.68;4.88;;;;;;;7.14;100.00;100622.72;6154771;23;20021;-79
2022/12/25 09:09:16;;;;;;;5.13;4.63;;;;;;;8.25;100.00;100837.75;6155783;23;20557;-80
2022/12/25 09:11:43;;;;;;;4.75;4.50;;;;;;;8.05;100.00;100788.03;6150339;23;20028;-80
2022/12/25 09:14:09;;;;;;;5.20;4.80;;;;;;;8.66;100.00;100921.59;6143463;23;20025;-80
2022/12/25 09:16:36;;;;;;;8.10;5.53;;;;;;;7.37;100.00;100684.44;6166300;23;20036;-79
2022/12/25 09:19:02;;;;;;;5.55;4.75;;;;;;;8.52;100.00;100895.09;6148421;23;20470;-79
2022/12/25 09:21:29;;;;;;;4.88;4.57;;;;;;;6.83;100.00;100640.44;6142803;23;20718;-79
2022/12/25 09:23:55;;;;;;;4.65;4.45;;;;;;;8.54;100.00;100914.22;6175348;23;20529;-79
2022/12/25 09:26:21;;;;;;;6.30;5.28;;;;;;;5.76;100.00;100450.63;6117633;23;20068;-80
2022/12/25 09:28:49;;;;;;;5.45;5.05;;;;;;;6.88;100.00;100644.59;6183921;23;20490;-81
2022/12/25 09:31:19;;;;;;;5.68;4.75;;;;;;;7.84;100.00;100801.06;6146059;23;20283;-79
2022/12/25 09:33:47;;;;;;;6.47;4.97;;;;;;;8.58;100.00;100918.44;6206030;23;20024;-80
2022/12/25 09:36:13;;;;;;;13.93;4.60;;;;;;;8.45;100.00;100901.50;6167023;23;20193;-83
2022/12/25 09:38:40;;;;;;;4.80;4.50;;;;;;;7.13;100.00;100688.00;6203354;23;20100;-82
2022/12/25 09:41:16;;;;;;;5.28;4.57;;;;;;;6.17;100.00;100561.16;6156554;23;20031;-82
2022/12/25 09:43:51;;;;;;;5.65;5.25;;;;;;;7.66;100.00;100804.34;6175681;23;20031;-83
2022/12/25 09:46:22;;;;;;;4.50;4.30;;;;;;;8.36;100.00;100950.63;6147441;23;20045;-85
2022/12/25 09:49:00;;;;;;;5.50;5.05;;;;;;;8.57;100.00;100992.56;6164181;23;20047;-83
2022/12/25 09:51:29;;;;;;;5.15;4.70;;;;;;;8.58;100.00;100952.44;6164902;23;20017;-82
2022/12/25 09:54:08;;;;;;;5.22;4.82;;;;;;;7.82;100.00;100829.00;6164389;23;20463;-83
2022/12/25 09:56:37;;;;;;;11.55;6.07;;;;;;;8.18;100.00;100872.91;6149426;23;20047;-81
2022/12/25 09:59:23;;;;;;;7.53;5.00;;;;;;;4.25;100.00;100242.59;6151159;23;20025;-82
2022/12/25 10:02:23;;;;;;;5.80;5.30;;;;;;;8.56;100.00;100915.88;6160507;23;20025;-83
2022/12/25 10:05:21;;;;;;;5.07;4.78;;;;;;;6.39;100.00;100589.91;6167719;23;20421;-81
2022/12/25 10:08:04;;;;;;;5.30;5.00;;;;;;;8.58;100.00;100918.44;6153545;23;20024;-80
2022/12/25 10:10:44;;;;;;;5.05;4.75;;;;;;;6.73;100.00;100660.81;6147245;23;20065;-82
2022/12/25 10:13:38;;;;;;;4.90;4.60;;;;;;;8.56;100.00;100907.16;6184396;23;20017;-82
2022/12/25 10:16:21;;;;;;;5.45;5.03;;;;;;;7.75;100.00;100797.00;6148682;23;20239;-81
2022/12/25 10:19:03;;;;;;;;;;;;;;;8.68;100.00;100877.88;6182516;23;20084;-78
2022/12/25 10:21:30;;;;;;;4.13;3.92;;;;;;;8.35;100.00;100820.75;6146079;23;19906;-78
2022/12/25 10:24:04;;;;;;;5.00;4.60;;;;;;;8.69;100.00;100869.09;6154486;23;20013;-79
2022/12/25 10:26:32;;;;;;;7.93;5.40;;;;;;;5.89;100.00;100420.59;6153380;23;20432;-78
2022/12/25 10:29:14;;;;;;;5.50;5.10;;;;;;;7.78;100.00;100712.47;6174125;23;20023;-80
2022/12/25 10:31:44;;;;;;;5.10;4.47;;;;;;;6.87;100.00;100561.16;6161964;23;20028;-78
2022/12/25 10:34:12;;;;;;;7.50;6.65;;;;;;;8.72;100.00;100868.13;6186717;23;20024;-78
2022/12/25 10:36:40;;;;;;;6.90;4.95;;;;;;;8.41;100.00;100797.91;6129035;23;20037;-79
2022/12/25 10:39:15;;;;;;;4.43;4.22;;;;;;;8.09;100.00;100734.72;6182433;23;20373;-80
2022/12/25 10:42:03;;;;;;;5.28;4.97;;;;;;;8.77;100.00;100842.63;6128273;23;20376;-80
2022/12/25 10:44:29;;;;;;;5.13;4.80;;;;;;;8.84;100.00;100838.84;6180132;23;20669;-82
2022/12/25 10:46:58;;;;;;;5.50;5.10;;;;;;;8.62;100.00;100835.41;6128165;23;20017;-80
2022/12/25 10:49:37;;;;;;;6.93;6.28;;;;;;;7.56;100.00;100619.28;6153519;23;20025;-80
2022/12/25 10:52:18;;;;;;;5.43;4.95;;;;;;;8.59;100.00;100815.47;6139740;23;20016;-78
2022/12/25 10:54:45;;;;;;;5.60;5.22;;;;;;;8.11;100.00;100738.97;6128627;23;20381;-81
2022/12/25 10:57:16;;;;;;;5.55;5.05;;;;;;;8.73;100.00;100849.75;6162220;23;20036;-78
2022/12/25 10:59:45;;;;;;;5.07;4.78;;;;;;;8.89;100.00;100836.88;6136954;23;20086;-74
2022/12/25 11:02:22;;;;;;;5.03;4.72;;;;;;;8.88;100.00;100837.78;6150930;23;20102;-81
2022/12/25 11:04:50;;;;;;;5.10;4.80;;;;;;;7.90;100.00;100664.94;6121063;23;20029;-77
2022/12/25 11:07:16;;;;;;;7.03;5.88;;;;;;;8.86;100.00;100807.34;6131777;23;20165;-78
2022/12/25 11:09:52;;;;;;;5.32;5.03;;;;;;;8.89;100.00;100786.28;6143692;23;20037;-79
2022/12/25 11:12:31;;;;;;;6.55;5.10;;;;;;;8.99;100.00;100779.72;6159939;23;20477;-78
2022/12/25 11:15:03;;;;;;;5.35;5.05;;;;;;;8.18;100.00;100622.78;6137999;23;20006;-76
2022/12/25 11:17:29;;;;;;;5.40;5.10;;;;;;;7.58;100.00;100533.06;6151275;23;20392;-77
2022/12/25 11:19:59;;;;;;;4.63;4.35;;;;;;;8.59;100.00;100690.75;6117881;23;20025;-75
2022/12/25 11:22:30;;;;;;;4.63;4.43;;;;;;;9.06;100.00;100741.03;6175915;23;20008;-78
2022/12/25 11:24:56;;;;;;;5.38;5.07;;;;;;;9.09;100.00;100741.75;6131003;23;20032;-77
2022/12/25 11:27:28;;;;;;;5.53;5.13;;;;;;;8.84;100.00;100688.81;6150851;23;20321;-75
2022/12/25 11:30:02;;;;;;;5.82;5.43;;;;;;;8.93;100.00;100680.56;6120215;23;20338;-76
2022/12/25 11:32:45;;;;;;;5.07;4.78;;;;;;;9.14;100.00;100703.13;6137815;23;20087;-76
2022/12/25 11:35:16;;;;;;;5.40;5.10;;;;;;;9.16;100.00;100705.66;6167900;23;20308;-77
2022/12/25 11:37:46;;;;;;;5.18;4.80;;;;;;;9.17;100.00;100707.38;6137014;23;20189;-78
2022/12/25 11:40:16;;;;;;;5.35;5.03;;;;;;;8.76;100.00;100639.47;6126911;23;20029;-78
2022/12/25 11:42:47;;;;;;;5.18;4.82;;;;;;;9.05;100.00;100697.47;6186259;23;20546;-76
2022/12/25 11:45:28;;;;;;;4.93;4.63;;;;;;;7.99;100.00;100522.56;6131514;23;20389;-74
2022/12/25 11:48:11;;;;;;;4.70;4.50;;;;;;;8.99;100.00;100686.34;6170571;23;20025;-77
2022/12/25 11:50:46;;;;;;;5.18;4.78;;;;;;;8.96;100.00;100676.03;6188578;23;20298;-77
2022/12/25 11:53:34;;;;;;;4.88;4.57;;;;;;;8.03;100.00;100512.84;6161010;23;20025;-79
2022/12/25 11:56:07;;;;;;;4.80;4.50;;;;;;;8.28;100.00;100538.69;6198757;23;20044;-78
2022/12/25 11:59:10;;;;;;;4.80;4.47;;;;;;;8.99;100.00;100652.31;6161474;23;20017;-79
2022/12/25 12:02:09;;;;;;;5.38;4.97;;;;;;;8.94;100.00;100654.31;6072413;23;20021;-79
2022/12/25 12:04:40;;;;;;;;;;;;;;;8.93;100.00;100646.53;6086368;23;20038;-78
2022/12/25 12:07:23;;;;;;;5.43;4.57;;;;;;;9.03;100.00;100637.31;6149189;23;19915;-78
2022/12/25 12:10:11;;;;;;;5.45;5.10;;;;;;;8.97;100.00;100648.91;6116950;23;20049;-80
2022/12/25 12:12:51;;;;;;;7.68;4.65;;;;;;;8.69;100.00;100623.19;6131052;23;20029;-79
2022/12/25 12:15:39;;;;;;;5.00;4.70;;;;;;;8.99;100.00;100643.63;6116417;23;20461;-79
2022/12/25 12:18:26;;;;;;;5.03;4.72;;;;;;;8.17;100.00;100484.31;6118456;23;20029;-78
2022/12/25 12:21:20;;;;;;;4.72;4.45;;;;;;;8.99;100.00;100635.78;6117964;23;20213;-78
2022/12/25 12:24:03;;;;;;;5.65;5.18;;;;;;;8.95;100.00;100642.06;6122721;23;20009;-78
2022/12/25 12:26:35;;;;;;;5.25;4.85;;;;;;;8.89;100.00;100621.41;6152602;23;20088;-78
2022/12/25 12:29:04;;;;;;;4.80;4.60;;;;;;;8.92;100.00;100629.97;6121085;23;20060;-77
2022/12/25 12:31:43;;;;;;;4.93;4.63;;;;;;;8.32;100.00;100562.06;6100304;23;20014;-79
2022/12/25 12:34:43;;;;;;;5.38;4.97;;;;;;;8.94;100.00;100640.34;6154912;23;20040;-78
2022/12/25 12:37:26;;;;;;;4.78;4.57;;;;;;;8.71;100.00;100594.34;6097242;23;20040;-78
2022/12/25 12:39:53;;;;;;;6.18;5.78;;;;;;;8.54;100.00;100566.34;6094104;23;20018;-79
2022/12/25 12:42:24;;;;;;;6.43;5.93;;;;;;;8.75;100.00;100601.97;6141107;23;20036;-79
2022/12/25 12:44:54;;;;;;;4.93;4.63;;;;;;;8.94;100.00;100628.13;6117429;23;20174;-77
2022/12/25 12:47:27;;;;;;;4.90;4.60;;;;;;;8.97;100.00;100614.06;6148368;23;20035;-79
2022/12/25 12:49:58;;;;;;;;;;;;;;;8.96;100.00;100605.38;6099371;23;20024;-76
2022/12/25 12:52:37;;;;;;;5.38;4.97;;;;;;;7.96;100.00;100453.00;6133845;23;19940;-82
2022/12/25 12:55:12;;;;;;;5.07;4.63;;;;;;;8.48;100.00;100512.53;6119636;23;20112;-82
2022/12/25 12:57:40;;;;;;;10.60;4.82;;;;;;;9.07;100.00;100604.84;6153291;23;20036;-81
2022/12/25 13:00:15;;;;;;;5.30;4.90;;;;;;;7.99;100.00;100431.94;6105989;23;20599;-79
2022/12/25 13:02:42;;;;;;;8.18;5.85;;;;;;;9.07;100.00;100614.47;6185884;23;20021;-78
2022/12/25 13:05:29;;;;;;;5.75;5.15;;;;;;;8.24;100.00;100464.81;6153539;23;20206;-79
2022/12/25 13:08:52;;;;;;;5.93;5.53;;;;;;;8.54;100.00;100501.78;6187582;23;20279;-81
2022/12/25 13:11:22;;;;;;;5.85;5.40;;;;;;;8.83;100.00;100556.28;6050803;23;20034;-81
2022/12/25 13:13:52;;;;;;;6.22;5.60;;;;;;;9.12;100.00;100586.28;6188902;23;20067;-79
2022/12/25 13:16:33;;;;;;;5.18;4.88;;;;;;;8.78;100.00;100528.56;6153311;23;20037;-82
2022/12/25 13:19:04;;;;;;;7.00;4.82;;;;;;;9.14;100.00;100593.16;6194738;23;20024;-81
2022/12/25 13:21:32;;;;;;;6.20;5.45;;;;;;;9.12;100.00;100581.06;6138921;23;20016;-80
2022/12/25 13:24:07;;;;;;;5.20;4.82;;;;;;;7.87;100.00;100363.75;6155084;23;20025;-79
2022/12/25 13:26:34;;;;;;;5.90;5.28;;;;;;;9.15;100.00;100575.69;6188261;23;20200;-80